Time;durP1;ratioP1;P1;durP2;ratioP2;P2;SDS_P1;SDS_P2;PMS_P1;PMS_P2;Temp;Humidity;BMP_temperature;BMP_pressure;BME280_temperature;BME280_humidity;BME280_pressure;Samples;Min_cycle;Max_cycle;Signal;HPM_P1;HPM_P2
2023/11/18 00:01:50;;;;;;;14.38;2.30;;;8.90;99.90;;;;;;5062025;28;20041;-73
2023/11/18 00:04:17;;;;;;;13.35;1.83;;;8.90;99.90;;;;;;5061965;28;20045;-74
2023/11/18 00:06:44;;;;;;;9.68;2.63;;;8.90;99.90;;;;;;5063231;28;20041;-73
2023/11/18 00:09:13;;;;;;;6.57;1.42;;;8.90;99.90;;;;;;5063684;28;20308;-73
2023/11/18 00:11:40;;;;;;;10.07;1.85;;;8.90;99.90;;;;;;5062064;28;20044;-74
2023/11/18 00:14:07;;;;;;;8.00;1.65;;;8.90;99.90;;;;;;5065271;28;20072;-74
2023/11/18 00:16:35;;;;;;;5.20;1.90;;;8.90;99.90;;;;;;5067136;28;20058;-74
2023/11/18 00:19:01;;;;;;;7.25;1.42;;;8.80;99.90;;;;;;5066405;28;20083;-75
2023/11/18 00:21:28;;;;;;;12.75;1.77;;;8.80;99.90;;;;;;5064671;28;20049;-74
2023/11/18 00:23:55;;;;;;;7.50;1.45;;;8.80;99.90;;;;;;5062837;28;20048;-72
2023/11/18 00:26:22;;;;;;;8.05;1.88;;;8.70;99.90;;;;;;5067560;28;20059;-72
2023/11/18 00:28:49;;;;;;;6.45;1.77;;;8.70;99.90;;;;;;5066428;28;20037;-74
2023/11/18 00:31:16;;;;;;;7.60;1.75;;;8.70;99.90;;;;;;5061358;28;20059;-74
2023/11/18 00:33:43;;;;;;;13.95;3.17;;;8.70;99.90;;;;;;5066457;28;21549;-74
2023/11/18 00:36:10;;;;;;;9.43;2.50;;;8.70;99.90;;;;;;5048199;28;20172;-74
2023/11/18 00:38:36;;;;;;;8.45;2.22;;;8.70;99.90;;;;;;5066183;28;20317;-74
2023/11/18 00:41:04;;;;;;;7.20;2.60;;;8.70;99.90;;;;;;5043226;28;20499;-74
2023/11/18 00:43:31;;;;;;;11.23;2.53;;;8.70;99.90;;;;;;5063502;28;20048;-74
2023/11/18 00:45:59;;;;;;;11.23;3.65;;;8.80;99.90;;;;;;5046472;28;20050;-74
2023/11/18 00:48:26;;;;;;;6.20;2.47;;;8.70;99.90;;;;;;5064435;28;20131;-74
2023/11/18 00:50:52;;;;;;;15.75;3.65;;;8.80;99.90;;;;;;5066400;28;20429;-72
2023/11/18 00:53:19;;;;;;;15.85;2.47;;;8.80;99.90;;;;;;5066022;28;20106;-73
2023/11/18 00:55:46;;;;;;;12.48;2.30;;;8.80;99.90;;;;;;5066408;28;20333;-74
2023/11/18 00:58:13;;;;;;;12.52;3.08;;;8.80;99.90;;;;;;5066679;28;20083;-74
2023/11/18 01:00:40;;;;;;;10.30;2.53;;;8.80;99.90;;;;;;5066080;28;20057;-74
2023/11/18 01:03:08;;;;;;;6.93;2.15;;;8.80;99.90;;;;;;5065890;28;20382;-74
2023/11/18 01:05:34;;;;;;;18.08;2.75;;;8.80;99.90;;;;;;5065715;28;20057;-74
2023/11/18 01:08:02;;;;;;;10.13;2.50;;;8.80;99.90;;;;;;5066114;28;20412;-73
2023/11/18 01:10:29;;;;;;;8.35;2.13;;;8.70;99.90;;;;;;5058450;28;20416;-74
2023/11/18 01:12:57;;;;;;;7.03;1.88;;;8.70;99.90;;;;;;5062355;28;20094;-73
2023/11/18 01:15:24;;;;;;;7.13;2.10;;;8.70;99.90;;;;;;5063220;28;20381;-74
2023/11/18 01:17:51;;;;;;;15.55;2.53;;;8.70;99.90;;;;;;5065684;28;20052;-74
2023/11/18 01:20:21;;;;;;;10.70;2.38;;;8.70;99.90;;;;;;5065855;28;20495;-74
2023/11/18 01:22:49;;;;;;;12.07;2.58;;;8.70;99.90;;;;;;5066503;28;20044;-74
2023/11/18 01:25:19;;;;;;;9.75;2.00;;;8.70;99.90;;;;;;5064013;28;20044;-74
2023/11/18 01:27:48;;;;;;;8.20;2.00;;;8.70;99.90;;;;;;5046477;28;20063;-74
2023/11/18 01:30:15;;;;;;;7.32;1.83;;;8.70;99.90;;;;;;5057760;28;20102;-74
2023/11/18 01:32:42;;;;;;;6.57;1.80;;;8.70;99.90;;;;;;5063062;28;20041;-74
2023/11/18 01:35:12;;;;;;;6.30;2.05;;;8.70;99.90;;;;;;5064485;28;20044;-74
2023/11/18 01:37:39;;;;;;;15.90;1.70;;;8.70;99.90;;;;;;5065721;28;20120;-73
2023/11/18 01:40:07;;;;;;;7.70;1.27;;;8.70;99.90;;;;;;5065658;28;20519;-73
2023/11/18 01:42:34;;;;;;;10.18;1.63;;;8.70;99.90;;;;;;5065067;28;20076;-74
2023/11/18 01:45:03;;;;;;;7.35;1.25;;;8.70;99.90;;;;;;5065273;28;20470;-74
2023/11/18 01:47:32;;;;;;;5.80;2.50;;;8.70;99.90;;;;;;5065605;28;20040;-74
2023/11/18 01:49:59;;;;;;;7.13;1.67;;;8.70;99.90;;;;;;5065500;28;20044;-74
2023/11/18 01:52:29;;;;;;;5.80;2.00;;;8.80;99.90;;;;;;5042625;28;20124;-74
2023/11/18 01:54:56;;;;;;;7.05;1.92;;;8.80;99.90;;;;;;5030310;28;20052;-74
2023/11/18 01:57:23;;;;;;;9.55;2.40;;;8.80;99.90;;;;;;5047548;28;20052;-73
2023/11/18 01:59:50;;;;;;;8.90;1.73;;;8.80;99.90;;;;;;5053853;28;20056;-74
2023/11/18 02:02:18;;;;;;;7.97;1.42;;;8.70;99.90;;;;;;5033218;28;20040;-74
2023/11/18 02:04:45;;;;;;;11.20;1.40;;;8.80;99.90;;;;;;5065927;28;20080;-73
2023/11/18 02:07:14;;;;;;;8.65;2.17;;;8.70;99.90;;;;;;5066939;28;20048;-73
2023/11/18 02:09:42;;;;;;;9.68;1.27;;;8.70;99.90;;;;;;5048892;28;20060;-72
2023/11/18 02:12:27;;;;;;;5.80;1.40;;;8.80;99.90;;;;;;5066415;28;20052;-73
2023/11/18 02:14:53;;;;;;;6.10;1.27;;;8.80;99.90;;;;;;5066422;28;20054;-74
2023/11/18 02:17:23;;;;;;;5.38;1.52;;;8.80;99.90;;;;;;5049260;28;20090;-73
2023/11/18 02:19:55;;;;;;;8.23;1.25;;;8.80;99.90;;;;;;5066170;28;20059;-73
2023/11/18 02:22:23;;;;;;;6.55;1.45;;;8.80;99.90;;;;;;5049527;28;20394;-73
2023/11/18 02:24:50;;;;;;;7.95;1.50;;;8.80;99.90;;;;;;5048654;28;20049;-74
2023/11/18 02:27:20;;;;;;;7.13;1.67;;;8.80;99.90;;;;;;5067114;28;20040;-73
2023/11/18 02:29:48;;;;;;;7.72;1.60;;;8.80;99.90;;;;;;5066730;28;20106;-73
2023/11/18 02:32:23;;;;;;;5.00;2.05;;;8.80;99.90;;;;;;5032473;28;20037;-74
2023/11/18 02:35:10;;;;;;;5.15;1.30;;;8.80;99.90;;;;;;5035381;28;20553;-74
2023/11/18 02:37:38;;;;;;;3.08;0.90;;;8.90;99.90;;;;;;5034157;28;20488;-74
2023/11/18 02:40:11;;;;;;;3.83;1.25;;;8.90;99.90;;;;;;5034218;28;20135;-74
2023/11/18 02:42:38;;;;;;;6.40;1.90;;;9.00;99.90;;;;;;5051051;28;20045;-74
2023/11/18 02:45:06;;;;;;;4.07;1.15;;;9.00;99.90;;;;;;5033638;28;20045;-74
2023/11/18 02:47:33;;;;;;;6.85;1.50;;;9.00;99.90;;;;;;5049568;28;20068;-74
2023/11/18 02:50:05;;;;;;;3.22;1.02;;;9.00;99.90;;;;;;5067520;28;20448;-74
2023/11/18 02:52:33;;;;;;;4.47;1.25;;;9.00;99.90;;;;;;5067446;28;20051;-74
2023/11/18 02:54:59;;;;;;;2.40;0.93;;;9.10;99.90;;;;;;5056057;28;20053;-75
2023/11/18 02:57:26;;;;;;;8.32;1.83;;;9.10;99.90;;;;;;5067882;28;20099;-75
2023/11/18 02:59:53;;;;;;;2.95;1.00;;;9.10;99.90;;;;;;5057199;28;20495;-73
2023/11/18 03:02:20;;;;;;;7.95;3.08;;;9.20;99.90;;;;;;5049353;28;20045;-75
2023/11/18 03:04:48;;;;;;;7.25;1.17;;;9.20;99.90;;;;;;5066988;28;20052;-75
2023/11/18 03:07:14;;;;;;;5.07;1.38;;;9.30;99.90;;;;;;5067800;28;20049;-74
2023/11/18 03:09:41;;;;;;;8.02;1.92;;;9.30;99.90;;;;;;5067538;28;20056;-75
2023/11/18 03:12:08;;;;;;;1.70;1.20;;;9.30;99.90;;;;;;5050279;28;20048;-75
2023/11/18 03:14:35;;;;;;;5.13;1.25;;;9.30;99.90;;;;;;5065415;28;20470;-75
2023/11/18 03:17:03;;;;;;;7.82;0.80;;;9.40;99.90;;;;;;5049876;28;20052;-75
2023/11/18 03:19:30;;;;;;;4.70;0.95;;;9.40;99.90;;;;;;5048213;28;20051;-74
2023/11/18 03:21:57;;;;;;;1.90;0.55;;;9.40;99.90;;;;;;5067737;28;20507;-75
2023/11/18 03:24:25;;;;;;;7.55;1.23;;;9.40;99.90;;;;;;5066828;28;20048;-75
2023/11/18 03:26:51;;;;;;;4.32;1.27;;;9.40;99.90;;;;;;5067226;28;20067;-74
2023/11/18 03:29:18;;;;;;;4.93;0.90;;;9.50;99.90;;;;;;5067257;28;20037;-75
2023/11/18 03:31:48;;;;;;;4.80;1.00;;;9.50;99.90;;;;;;5067588;28;20396;-75
2023/11/18 03:34:16;;;;;;;5.68;0.85;;;9.50;99.90;;;;;;5049159;28;20127;-74
2023/11/18 03:36:45;;;;;;;3.63;1.20;;;9.50;99.90;;;;;;5066599;28;20101;-75
2023/11/18 03:39:12;;;;;;;1.05;0.60;;;9.60;99.90;;;;;;5067437;28;20114;-74
2023/11/18 03:41:38;;;;;;;4.88;1.00;;;9.60;99.90;;;;;;5048994;28;20131;-75
2023/11/18 03:44:05;;;;;;;4.10;1.00;;;9.60;99.90;;;;;;5066688;28;20112;-74
2023/11/18 03:46:34;;;;;;;6.03;0.80;;;9.60;99.90;;;;;;5067945;28;20052;-76
2023/11/18 03:49:01;;;;;;;3.67;0.80;;;9.60;99.90;;;;;;5054421;28;20386;-75
2023/11/18 03:51:28;;;;;;;6.10;1.08;;;9.70;99.90;;;;;;5071193;28;20079;-75
2023/11/18 03:53:55;;;;;;;7.22;1.05;;;9.70;99.90;;;;;;5071124;28;20079;-75
2023/11/18 03:56:22;;;;;;;2.90;0.70;;;9.70;99.90;;;;;;5071042;28;20044;-74
2023/11/18 03:58:49;;;;;;;3.63;0.90;;;9.70;99.90;;;;;;4715194;28;9999802;-74
2023/11/18 04:01:22;;;;;;;4.25;0.63;;;9.70;99.90;;;;;;5069218;28;20400;-74
2023/11/18 04:03:50;;;;;;;3.13;0.50;;;9.70;99.90;;;;;;5071131;28;20056;-73
2023/11/18 04:06:17;;;;;;;4.68;0.88;;;9.80;99.90;;;;;;5062071;28;20041;-74
2023/11/18 04:08:48;;;;;;;2.15;0.50;;;9.80;99.90;;;;;;5063109;28;20126;-73
2023/11/18 04:11:15;;;;;;;3.30;0.80;;;9.80;99.90;;;;;;5048961;28;20037;-74
2023/11/18 04:13:42;;;;;;;3.35;0.70;;;9.80;99.90;;;;;;5070063;28;20129;-74
2023/11/18 04:16:12;;;;;;;3.97;0.65;;;9.80;99.90;;;;;;5070959;28;20051;-74
2023/11/18 04:18:42;;;;;;;1.48;0.57;;;9.80;99.90;;;;;;5070974;28;20194;-76
2023/11/18 04:21:09;;;;;;;0.95;0.20;;;9.80;99.90;;;;;;5068623;28;20052;-76
2023/11/18 04:23:41;;;;;;;2.83;0.40;;;9.80;99.90;;;;;;5058716;28;20121;-76
2023/11/18 04:26:08;;;;;;;1.42;0.43;;;9.90;99.90;;;;;;5056238;28;20041;-76
2023/11/18 04:28:35;;;;;;;1.70;0.63;;;9.90;99.90;;;;;;5067121;28;20056;-78
2023/11/18 04:31:02;;;;;;;7.65;1.27;;;9.90;99.90;;;;;;5069240;28;20049;-78
2023/11/18 04:33:29;;;;;;;2.58;0.40;;;9.80;99.90;;;;;;5037727;28;20083;-79
2023/11/18 04:35:57;;;;;;;6.07;0.65;;;9.90;99.90;;;;;;5062243;28;20086;-80
2023/11/18 04:38:25;;;;;;;4.72;0.57;;;9.90;99.90;;;;;;5070489;28;20050;-78
2023/11/18 04:40:53;;;;;;;0.63;0.40;;;9.90;99.90;;;;;;5051265;28;20463;-79
2023/11/18 04:43:22;;;;;;;1.02;0.30;;;9.90;99.90;;;;;;5065950;28;20040;-78
2023/11/18 04:46:05;;;;;;;1.27;0.32;;;9.90;99.90;;;;;;5057624;28;20044;-78
2023/11/18 04:48:32;;;;;;;1.02;0.57;;;9.90;99.90;;;;;;5070328;28;20045;-77
2023/11/18 04:51:00;;;;;;;0.57;0.30;;;9.90;99.90;;;;;;5051534;28;20275;-76
2023/11/18 04:53:27;;;;;;;0.70;0.28;;;9.90;99.90;;;;;;5064614;28;20056;-76
2023/11/18 04:55:54;;;;;;;0.98;0.30;;;9.90;99.90;;;;;;5069055;28;20944;-76
2023/11/18 04:58:21;;;;;;;1.85;0.98;;;10.00;99.90;;;;;;5069889;28;20090;-75
2023/11/18 05:00:48;;;;;;;0.52;0.50;;;10.00;99.90;;;;;;5051600;28;20485;-75
2023/11/18 05:03:16;;;;;;;0.20;0.20;;;10.00;99.90;;;;;;5069274;28;20488;-76
2023/11/18 05:05:43;;;;;;;0.20;0.20;;;10.00;99.90;;;;;;5052471;28;20102;-76
2023/11/18 05:08:19;;;;;;;0.10;0.10;;;10.10;99.90;;;;;;5070044;28;20037;-75
2023/11/18 05:10:50;;;;;;;1.10;0.28;;;10.20;99.90;;;;;;5069702;28;20052;-75
2023/11/18 05:13:18;;;;;;;5.43;0.50;;;10.20;99.90;;;;;;5068555;28;20527;-75
2023/11/18 05:15:46;;;;;;;0.55;0.40;;;10.10;99.90;;;;;;5069710;28;20131;-74
2023/11/18 05:18:16;;;;;;;3.05;0.30;;;10.20;99.90;;;;;;5069158;28;20564;-74
2023/11/18 05:20:43;;;;;;;2.88;0.40;;;10.20;99.90;;;;;;5069809;28;20469;-74
2023/11/18 05:23:11;;;;;;;1.08;0.32;;;10.20;99.90;;;;;;5068991;28;20048;-74
2023/11/18 05:25:43;;;;;;;3.50;0.57;;;10.20;99.90;;;;;;5051792;28;20052;-74
2023/11/18 05:28:10;;;;;;;1.05;0.50;;;10.30;99.90;;;;;;5069405;28;20048;-74
2023/11/18 05:30:38;;;;;;;2.30;0.70;;;10.30;99.90;;;;;;5065794;28;20049;-74
2023/11/18 05:33:05;;;;;;;0.20;0.20;;;10.30;99.90;;;;;;5050990;28;20512;-74
2023/11/18 05:35:33;;;;;;;1.02;0.43;;;10.30;99.90;;;;;;5065814;28;20254;-74
2023/11/18 05:38:00;;;;;;;0.95;0.50;;;10.40;99.90;;;;;;5058148;28;20425;-73
2023/11/18 05:40:28;;;;;;;4.32;0.70;;;10.40;99.90;;;;;;5068694;28;20056;-73
2023/11/18 05:42:57;;;;;;;2.05;0.50;;;10.40;99.90;;;;;;5068675;28;20045;-74
2023/11/18 05:45:36;;;;;;;5.35;0.65;;;10.40;99.90;;;;;;5041116;28;20099;-76
2023/11/18 05:48:03;;;;;;;1.75;0.50;;;10.40;99.90;;;;;;5055756;28;20040;-76
2023/11/18 05:50:31;;;;;;;7.43;0.70;;;10.40;99.90;;;;;;5069166;28;20052;-75
2023/11/18 05:53:00;;;;;;;1.10;0.60;;;10.50;99.90;;;;;;5068559;28;20048;-75
2023/11/18 05:55:27;;;;;;;0.52;0.38;;;10.50;99.90;;;;;;5043411;28;20041;-75
2023/11/18 05:57:54;;;;;;;2.55;0.95;;;10.50;99.90;;;;;;5066534;28;20106;-75
2023/11/18 06:00:24;;;;;;;32.30;1.92;;;10.50;99.90;;;;;;5068352;28;20091;-74
2023/11/18 06:02:59;;;;;;;0.73;0.30;;;10.50;99.90;;;;;;5068054;28;20287;-74
2023/11/18 06:05:29;;;;;;;1.48;0.40;;;10.50;99.90;;;;;;5065212;28;20098;-74
2023/11/18 06:07:58;;;;;;;2.55;0.20;;;10.60;99.90;;;;;;5051307;28;20040;-74
2023/11/18 06:10:25;;;;;;;0.52;0.30;;;10.60;99.90;;;;;;5068637;28;20055;-74
2023/11/18 06:12:53;;;;;;;5.82;0.30;;;10.60;99.90;;;;;;5068058;28;20071;-75
2023/11/18 06:15:22;;;;;;;0.82;0.40;;;10.60;99.90;;;;;;5044863;28;20052;-73
2023/11/18 06:17:49;;;;;;;1.17;0.35;;;10.60;99.90;;;;;;5051269;28;20060;-74
2023/11/18 06:20:17;;;;;;;1.58;0.52;;;10.70;99.90;;;;;;5068152;28;20067;-75
2023/11/18 06:22:44;;;;;;;0.63;0.20;;;10.70;99.90;;;;;;5068988;28;20052;-74
2023/11/18 06:25:12;;;;;;;3.08;0.52;;;10.70;99.90;;;;;;5068453;28;20047;-73
2023/11/18 06:27:39;;;;;;;4.10;0.35;;;10.70;99.90;;;;;;5068999;28;20091;-73
2023/11/18 06:30:07;;;;;;;1.65;0.47;;;10.70;99.90;;;;;;5068649;28;20094;-73
2023/11/18 06:32:33;;;;;;;3.47;0.40;;;10.80;99.90;;;;;;5066987;28;20479;-73
2023/11/18 06:35:01;;;;;;;1.58;0.43;;;10.80;99.90;;;;;;5068335;28;20039;-74
2023/11/18 06:37:32;;;;;;;25.10;1.67;;;10.80;99.90;;;;;;5068265;28;20511;-75
2023/11/18 06:39:59;;;;;;;0.70;0.30;;;10.80;99.90;;;;;;5068616;28;20105;-74
2023/11/18 06:42:26;;;;;;;1.85;0.50;;;10.80;99.90;;;;;;5068588;28;20049;-74
2023/11/18 06:44:53;;;;;;;14.23;1.55;;;10.80;99.90;;;;;;5050184;28;20052;-74
2023/11/18 06:47:20;;;;;;;5.15;0.40;;;10.80;99.90;;;;;;5068519;28;20095;-74
2023/11/18 06:49:52;;;;;;;0.40;0.40;;;10.80;99.90;;;;;;5068026;28;20131;-74
2023/11/18 06:52:18;;;;;;;0.43;0.40;;;10.90;99.90;;;;;;5051171;28;20040;-74
2023/11/18 06:54:45;;;;;;;30.23;2.28;;;10.80;99.90;;;;;;5067659;28;20066;-74
2023/11/18 06:57:12;;;;;;;5.60;0.35;;;10.90;99.90;;;;;;5068055;28;20106;-73
2023/11/18 06:59:39;;;;;;;2.00;0.43;;;10.90;99.90;;;;;;5067816;28;20083;-74
2023/11/18 07:02:06;;;;;;;1.42;0.30;;;10.90;99.90;;;;;;5066963;28;20053;-74
2023/11/18 07:04:33;;;;;;;1.98;0.52;;;10.90;99.90;;;;;;5050403;28;20084;-74
2023/11/18 07:07:01;;;;;;;2.75;0.98;;;10.90;99.90;;;;;;5068174;28;20037;-75
2023/11/18 07:09:28;;;;;;;2.25;0.40;;;10.90;99.90;;;;;;5069005;28;20044;-74
2023/11/18 07:11:55;;;;;;;0.28;0.20;;;10.90;99.90;;;;;;5049819;28;20447;-74
2023/11/18 07:14:22;;;;;;;3.45;0.43;;;10.90;99.90;;;;;;5067724;28;20044;-74
2023/11/18 07:16:49;;;;;;;0.60;0.20;;;11.00;99.90;;;;;;5067316;28;20157;-74
2023/11/18 07:19:23;;;;;;;1.30;0.57;;;11.00;99.90;;;;;;5067662;28;20471;-74
2023/11/18 07:21:50;;;;;;;0.20;0.20;;;11.00;99.90;;;;;;5067213;28;20052;-74
2023/11/18 07:24:17;;;;;;;0.82;0.40;;;11.00;99.90;;;;;;5046768;28;20049;-73
2023/11/18 07:26:45;;;;;;;1.80;0.60;;;11.00;99.90;;;;;;5060855;28;20044;-74
2023/11/18 07:29:12;;;;;;;2.92;0.47;;;11.10;99.90;;;;;;5067268;28;20036;-75
2023/11/18 07:31:39;;;;;;;2.63;0.22;;;11.00;99.90;;;;;;5049084;28;20051;-73
2023/11/18 07:34:05;;;;;;;1.23;0.20;;;11.00;99.90;;;;;;5047399;28;20045;-70
2023/11/18 07:36:33;;;;;;;0.75;0.30;;;11.10;99.90;;;;;;5054670;28;20055;-70
2023/11/18 07:39:01;;;;;;;2.50;0.40;;;11.10;99.90;;;;;;5062367;28;20044;-69
2023/11/18 07:41:28;;;;;;;0.70;0.30;;;11.10;99.90;;;;;;4702330;28;10000613;-69
2023/11/18 07:43:59;;;;;;;0.10;0.10;;;11.10;99.90;;;;;;5056598;28;20045;-70
2023/11/18 07:46:26;;;;;;;0.80;0.10;;;11.10;99.90;;;;;;5059694;28;20055;-71
2023/11/18 07:48:53;;;;;;;0.28;0.28;;;11.10;99.90;;;;;;5059761;28;20079;-69
2023/11/18 07:51:24;;;;;;;2.17;0.52;;;11.20;99.90;;;;;;5041756;28;20049;-72
2023/11/18 07:53:51;;;;;;;0.10;0.10;;;11.20;99.90;;;;;;5045153;28;20131;-69
2023/11/18 07:56:17;;;;;;;2.22;0.10;;;11.20;99.90;;;;;;5063772;28;20053;-68
2023/11/18 07:58:47;;;;;;;0.10;0.10;;;11.30;99.90;;;;;;5041636;28;20111;-70
2023/11/18 08:01:17;;;;;;;0.75;0.40;;;11.30;99.90;;;;;;5063046;28;20467;-70
2023/11/18 08:03:44;;;;;;;1.33;0.47;;;11.30;99.90;;;;;;5063245;28;20044;-70
2023/11/18 08:06:12;;;;;;;0.47;0.40;;;11.40;99.90;;;;;;5063627;28;20041;-70
2023/11/18 08:08:39;;;;;;;2.35;0.60;;;11.40;99.90;;;;;;5059759;28;20091;-69
2023/11/18 08:11:06;;;;;;;0.57;0.43;;;11.40;99.90;;;;;;5063316;28;20040;-69
2023/11/18 08:13:33;;;;;;;0.75;0.40;;;11.50;99.90;;;;;;5060158;28;20048;-68
2023/11/18 08:16:01;;;;;;;0.30;0.30;;;11.50;99.90;;;;;;5052320;28;20555;-71
2023/11/18 08:18:30;;;;;;;1.63;0.20;;;11.50;99.90;;;;;;4681313;28;9999925;-68
2023/11/18 08:20:59;;;;;;;0.45;0.20;;;11.50;99.90;;;;;;5064659;28;20056;-69
2023/11/18 08:23:28;;;;;;;0.22;0.20;;;11.60;99.90;;;;;;5060176;28;20563;-69
2023/11/18 08:25:55;;;;;;;1.00;0.32;;;11.60;99.90;;;;;;5040407;28;20052;-69
2023/11/18 08:28:22;;;;;;;0.65;0.30;;;11.70;99.90;;;;;;5053998;28;20072;-69
2023/11/18 08:30:51;;;;;;;0.35;0.25;;;11.70;99.90;;;;;;5066857;28;20103;-68
2023/11/18 08:33:19;;;;;;;0.80;0.15;;;11.70;99.90;;;;;;5063879;28;20071;-69
2023/11/18 08:35:46;;;;;;;0.28;0.20;;;11.70;99.90;;;;;;5060074;28;20045;-69
2023/11/18 08:38:13;;;;;;;0.17;0.10;;;11.80;99.90;;;;;;5066596;28;20128;-69
2023/11/18 08:40:40;;;;;;;0.10;0.10;;;11.90;99.90;;;;;;5070086;28;20052;-69
2023/11/18 08:43:07;;;;;;;2.10;0.30;;;11.80;99.90;;;;;;5026224;28;20787;-73
2023/11/18 08:45:36;;;;;;;4.28;0.20;;;11.90;99.90;;;;;;5067821;28;20095;-72
2023/11/18 08:48:07;;;;;;;0.60;0.20;;;12.00;99.90;;;;;;5049837;28;20143;-73
2023/11/18 08:50:36;;;;;;;1.35;0.30;;;12.00;99.90;;;;;;5052469;28;20438;-74
2023/11/18 08:53:05;;;;;;;0.85;0.25;;;12.10;99.90;;;;;;5045889;28;20040;-72
2023/11/18 08:55:39;;;;;;;1.15;0.40;;;12.20;99.90;;;;;;5069954;28;20423;-72
2023/11/18 08:58:27;;;;;;;0.40;0.30;;;12.20;99.90;;;;;;5037793;28;20041;-73
2023/11/18 09:01:23;;;;;;;0.20;0.20;;;12.20;99.90;;;;;;5070082;28;20466;-72
2023/11/18 09:03:52;;;;;;;0.35;0.20;;;12.30;99.90;;;;;;5053427;28;20040;-73
2023/11/18 09:06:25;;;;;;;1.23;0.30;;;12.40;99.90;;;;;;5065137;28;20040;-72
2023/11/18 09:08:53;;;;;;;1.30;0.40;;;12.40;99.90;;;;;;5053437;28;20060;-72
2023/11/18 09:11:22;;;;;;;0.28;0.22;;;12.50;99.90;;;;;;5069798;28;20048;-72
2023/11/18 09:13:53;;;;;;;0.20;0.20;;;12.60;99.90;;;;;;5069935;28;20044;-72
2023/11/18 09:16:30;;;;;;;1.05;0.30;;;12.60;99.90;;;;;;5036284;28;20056;-72
2023/11/18 09:19:02;;;;;;;1.15;0.35;;;12.60;99.90;;;;;;5044810;28;20144;-73
2023/11/18 09:21:32;;;;;;;1.00;0.25;;;12.70;99.90;;;;;;5068452;28;20535;-73
2023/11/18 09:23:59;;;;;;;1.10;0.38;;;12.70;99.90;;;;;;5060374;28;20051;-72
2023/11/18 09:26:29;;;;;;;1.30;0.40;;;12.70;99.90;;;;;;5068904;28;20102;-71
2023/11/18 09:28:57;;;;;;;0.20;0.20;;;12.80;99.90;;;;;;5062543;28;20055;-70
2023/11/18 09:31:24;;;;;;;0.30;0.20;;;12.80;99.90;;;;;;5062128;28;20057;-72
2023/11/18 09:33:57;;;;;;;0.82;0.30;;;12.90;99.90;;;;;;5057146;28;20044;-71
2023/11/18 09:36:24;;;;;;;1.02;0.32;;;12.90;99.90;;;;;;5068533;28;20059;-70
2023/11/18 09:38:52;;;;;;;1.85;0.40;;;12.90;99.90;;;;;;5051682;28;20479;-72
2023/11/18 09:41:19;;;;;;;0.47;0.20;;;12.90;99.90;;;;;;5069200;28;20140;-71
2023/11/18 09:43:46;;;;;;;1.48;0.30;;;13.00;99.90;;;;;;5051301;28;20049;-71
2023/11/18 09:46:15;;;;;;;4.28;0.43;;;13.00;99.90;;;;;;5067264;28;20571;-72
2023/11/18 09:48:46;;;;;;;0.73;0.22;;;13.10;99.90;;;;;;5069080;28;20246;-72
2023/11/18 09:51:21;;;;;;;1.23;0.30;;;13.10;99.90;;;;;;5057510;28;20040;-72
2023/11/18 09:53:52;;;;;;;2.72;0.50;;;13.20;99.90;;;;;;5032357;28;20101;-72
2023/11/18 09:56:26;;;;;;;0.30;0.22;;;13.20;99.90;;;;;;5066115;28;20045;-72
2023/11/18 09:58:59;;;;;;;;;;;13.20;99.90;;;;;;5067538;28;20301;-72
2023/11/18 10:01:27;;;;;;;3.70;0.43;;;13.30;99.90;;;;;;5051161;28;19976;-72
2023/11/18 10:03:58;;;;;;;0.85;0.50;;;13.30;99.90;;;;;;5068390;28;20140;-73
2023/11/18 10:06:27;;;;;;;0.85;0.40;;;13.30;99.90;;;;;;5034504;28;20052;-72
2023/11/18 10:08:55;;;;;;;0.38;0.30;;;13.40;99.90;;;;;;5051166;28;20457;-72
2023/11/18 10:11:22;;;;;;;1.08;0.40;;;13.40;99.90;;;;;;5034346;28;20515;-72
2023/11/18 10:13:49;;;;;;;1.27;0.63;;;13.50;99.90;;;;;;5068646;28;20055;-72
2023/11/18 10:16:18;;;;;;;1.23;0.25;;;13.50;99.90;;;;;;5068268;28;20052;-72
2023/11/18 10:18:48;;;;;;;3.13;0.40;;;13.50;99.90;;;;;;4715736;28;10000509;-72
2023/11/18 10:21:18;;;;;;;1.00;0.40;;;13.60;99.90;;;;;;5047806;28;20055;-72
2023/11/18 10:24:01;;;;;;;1.02;0.40;;;13.70;99.90;;;;;;5032371;28;20518;-72
2023/11/18 10:26:28;;;;;;;3.33;0.63;;;13.70;99.90;;;;;;5050502;28;20052;-72
2023/11/18 10:28:55;;;;;;;3.50;0.60;;;13.70;99.90;;;;;;5068253;28;20135;-72
2023/11/18 10:31:24;;;;;;;1.80;0.60;;;13.70;99.90;;;;;;5051005;28;20075;-71
2023/11/18 10:33:51;;;;;;;1.40;0.40;;;13.80;99.90;;;;;;5049793;28;20047;-72
2023/11/18 10:36:25;;;;;;;2.38;1.13;;;13.80;99.90;;;;;;5067879;28;20086;-72
2023/11/18 10:38:55;;;;;;;2.63;0.40;;;13.80;99.90;;;;;;5050166;28;20362;-72
2023/11/18 10:41:23;;;;;;;1.33;0.40;;;13.80;99.90;;;;;;5051151;28;20048;-74
2023/11/18 10:43:52;;;;;;;1.58;0.60;;;13.80;99.90;;;;;;5033532;28;20121;-73
2023/11/18 10:46:20;;;;;;;2.83;0.50;;;13.80;99.90;;;;;;5017746;28;20040;-73
2023/11/18 10:48:48;;;;;;;1.98;0.60;;;13.90;99.90;;;;;;5066919;28;20059;-73
2023/11/18 10:51:19;;;;;;;0.88;0.45;;;13.90;99.90;;;;;;5068206;28;20051;-72
2023/11/18 10:53:53;;;;;;;2.03;0.32;;;13.90;99.90;;;;;;5067809;28;20044;-72
2023/11/18 10:56:26;;;;;;;1.90;0.60;;;13.90;99.90;;;;;;5066812;28;20182;-72
2023/11/18 10:59:20;;;;;;;1.25;0.38;;;13.90;99.90;;;;;;5048384;28;20069;-72
2023/11/18 11:01:48;;;;;;;2.42;0.50;;;14.00;99.90;;;;;;5047717;28;20059;-72
2023/11/18 11:04:22;;;;;;;0.77;0.28;;;14.00;99.90;;;;;;5067015;28;20037;-72
2023/11/18 11:06:52;;;;;;;1.65;0.50;;;14.00;99.90;;;;;;5064609;28;20048;-73
2023/11/18 11:09:24;;;;;;;2.03;0.95;;;14.00;99.90;;;;;;5067416;28;20044;-74
2023/11/18 11:11:59;;;;;;;1.30;0.50;;;14.10;99.90;;;;;;5068093;28;20044;-72
2023/11/18 11:14:35;;;;;;;3.00;1.10;;;14.00;99.90;;;;;;5049627;28;20098;-73
2023/11/18 11:17:11;;;;;;;2.90;0.50;;;14.10;99.90;;;;;;5035798;28;20125;-72
2023/11/18 11:23:22;;;;;;;1.17;0.50;;;14.20;99.90;;;;;;4983163;28;20639;-72
2023/11/18 11:25:50;;;;;;;1.73;0.40;;;14.30;99.90;;;;;;5057114;28;20566;-72
2023/11/18 11:28:20;;;;;;;3.42;0.40;;;14.30;99.90;;;;;;5067850;28;20082;-72
2023/11/18 11:30:55;;;;;;;1.63;0.45;;;14.30;99.90;;;;;;5048438;28;20121;-72
2023/11/18 11:33:40;;;;;;;1.15;0.43;;;14.30;99.90;;;;;;5049528;28;20044;-72
2023/11/18 11:36:11;;;;;;;1.00;0.47;;;14.40;99.90;;;;;;5050341;28;20045;-72
2023/11/18 11:38:39;;;;;;;2.13;0.70;;;14.40;99.90;;;;;;5049707;28;20450;-73
2023/11/18 11:41:08;;;;;;;1.63;0.55;;;14.40;99.90;;;;;;5067349;28;20055;-72
2023/11/18 11:43:35;;;;;;;1.60;0.55;;;14.40;99.90;;;;;;5050021;28;20448;-70
2023/11/18 11:46:10;;;;;;;4.47;0.82;;;14.40;99.90;;;;;;5066793;28;20041;-72
2023/11/18 11:48:38;;;;;;;1.42;0.73;;;14.40;99.90;;;;;;5042910;28;20052;-73
2023/11/18 11:51:20;;;;;;;2.40;1.25;;;14.40;99.90;;;;;;5048864;28;20044;-71
2023/11/18 11:54:15;;;;;;;5.28;0.80;;;14.40;99.90;;;;;;5049722;28;20124;-71
2023/11/18 11:57:01;;;;;;;0.90;0.50;;;14.40;99.90;;;;;;5066649;28;20471;-72
2023/11/18 11:59:52;;;;;;;1.20;0.57;;;14.50;99.90;;;;;;5056688;28;20092;-72
2023/11/18 12:02:28;;;;;;;1.17;0.55;;;14.50;99.90;;;;;;5055343;28;20044;-72
2023/11/18 12:04:58;;;;;;;1.45;0.95;;;14.50;99.90;;;;;;5067107;28;20045;-73
2023/11/18 12:07:27;;;;;;;3.67;0.60;;;14.50;99.90;;;;;;5067135;28;20052;-70
2023/11/18 12:09:57;;;;;;;1.90;0.50;;;14.50;99.90;;;;;;5050654;28;20429;-72
2023/11/18 12:12:28;;;;;;;1.70;0.45;;;14.60;99.90;;;;;;5071204;28;20084;-72
2023/11/18 12:15:17;;;;;;;0.30;0.20;;;14.60;99.90;;;;;;5036724;28;20044;-71
2023/11/18 12:17:51;;;;;;;0.85;0.35;;;14.60;99.90;;;;;;5070385;28;20083;-72
2023/11/18 12:21:23;;;;;;;0.90;0.43;;;14.60;99.90;;;;;;5067696;28;20087;-72
2023/11/18 12:23:36;;;;;;;4.75;1.42;;;14.60;99.90;;;;;;5053800;28;20254;-72
2023/11/18 12:26:04;;;;;;;0.85;0.77;;;14.60;99.90;;;;;;5053026;28;20049;-73
2023/11/18 12:28:34;;;;;;;1.25;0.70;;;14.60;99.90;;;;;;5052926;28;20057;-71
2023/11/18 12:31:05;;;;;;;2.28;0.82;;;14.60;99.90;;;;;;5071285;28;20384;-73
2023/11/18 12:34:09;;;;;;;2.58;0.80;;;14.60;99.90;;;;;;5052981;28;20049;-71
2023/11/18 12:37:05;;;;;;;1.30;0.70;;;14.60;99.90;;;;;;5069005;28;20048;-71
2023/11/18 12:40:00;;;;;;;1.05;0.60;;;14.70;99.90;;;;;;5052971;28;20131;-71
2023/11/18 12:42:51;;;;;;;3.05;0.68;;;14.70;99.90;;;;;;5050492;28;20416;-72
2023/11/18 12:45:36;;;;;;;3.08;0.77;;;14.70;99.90;;;;;;5028916;28;20053;-71
2023/11/18 12:48:11;;;;;;;4.72;0.80;;;14.80;99.90;;;;;;5048315;28;20049;-72
2023/11/18 12:50:45;;;;;;;2.13;0.70;;;14.80;99.90;;;;;;5053583;28;20106;-72
2023/11/18 12:53:14;;;;;;;3.85;0.98;;;14.90;99.90;;;;;;5053190;28;20114;-72
2023/11/18 12:55:41;;;;;;;3.42;0.60;;;14.90;99.90;;;;;;5052850;28;20048;-73
2023/11/18 12:58:11;;;;;;;1.92;0.60;;;14.90;99.90;;;;;;5035974;28;20084;-71
2023/11/18 13:00:42;;;;;;;0.68;0.57;;;14.90;99.90;;;;;;5069958;28;20462;-72
2023/11/18 13:03:10;;;;;;;1.88;0.90;;;14.90;99.90;;;;;;5051999;28;20048;-72
2023/11/18 13:05:37;;;;;;;2.20;0.40;;;15.00;99.90;;;;;;5051375;28;20044;-73
2023/11/18 13:08:04;;;;;;;1.80;0.95;;;15.00;99.90;;;;;;5070016;28;20044;-73